sensor_id;sensor_type;location;lat;lon;timestamp;pressure;altitude;pressure_sealevel;temperature;humidity
58018;BME280;43810;50.860;19.226;2023-03-21T00:00:57;98579.53;;;9.19;89.50
58018;BME280;43810;50.860;19.226;2023-03-21T00:03:24;98581.88;;;9.21;89.42
58018;BME280;43810;50.860;19.226;2023-03-21T00:05:51;98577.91;;;9.06;88.78
58018;BME280;43810;50.860;19.226;2023-03-21T00:08:22;98572.41;;;9.11;89.17
58018;BME280;43810;50.860;19.226;2023-03-21T00:11:02;98577.38;;;9.13;89.16
58018;BME280;43810;50.860;19.226;2023-03-21T00:13:29;98576.75;;;9.16;89.06
58018;BME280;43810;50.860;19.226;2023-03-21T00:16:09;98574.88;;;9.16;88.73
58018;BME280;43810;50.860;19.226;2023-03-21T00:18:44;98566.63;;;9.09;88.50
58018;BME280;43810;50.860;19.226;2023-03-21T00:21:16;98569.91;;;9.15;88.52
58018;BME280;43810;50.860;19.226;2023-03-21T00:23:43;98566.47;;;9.14;88.75
58018;BME280;43810;50.860;19.226;2023-03-21T00:26:09;98566.31;;;9.11;88.93
58018;BME280;43810;50.860;19.226;2023-03-21T00:28:36;98562.09;;;9.18;88.80
58018;BME280;43810;50.860;19.226;2023-03-21T00:31:03;98554.72;;;9.24;88.53
58018;BME280;43810;50.860;19.226;2023-03-21T00:33:29;98560.97;;;9.28;88.24
58018;BME280;43810;50.860;19.226;2023-03-21T00:35:55;98557.06;;;9.25;88.38
58018;BME280;43810;50.860;19.226;2023-03-21T00:38:21;98549.16;;;9.17;88.67
58018;BME280;43810;50.860;19.226;2023-03-21T00:40:47;98545.13;;;9.11;88.83
58018;BME280;43810;50.860;19.226;2023-03-21T00:43:13;98545.44;;;9.09;89.22
58018;BME280;43810;50.860;19.226;2023-03-21T00:45:43;98549.16;;;9.17;89.13
58018;BME280;43810;50.860;19.226;2023-03-21T00:48:09;98545.53;;;9.21;89.10
58018;BME280;43810;50.860;19.226;2023-03-21T00:50:36;98551.75;;;9.25;88.57
58018;BME280;43810;50.860;19.226;2023-03-21T00:53:04;98543.97;;;9.20;88.41
58018;BME280;43810;50.860;19.226;2023-03-21T00:55:30;98543.72;;;9.13;88.23
58018;BME280;43810;50.860;19.226;2023-03-21T00:57:56;98547.00;;;9.10;88.73
58018;BME280;43810;50.860;19.226;2023-03-21T01:00:22;98538.00;;;9.03;88.74
58018;BME280;43810;50.860;19.226;2023-03-21T01:02:48;98540.59;;;9.11;88.83
58018;BME280;43810;50.860;19.226;2023-03-21T01:05:25;98538.94;;;9.07;88.75
58018;BME280;43810;50.860;19.226;2023-03-21T01:08:11;98539.50;;;9.12;89.04
58018;BME280;43810;50.860;19.226;2023-03-21T01:10:43;98537.59;;;9.21;88.47
58018;BME280;43810;50.860;19.226;2023-03-21T01:13:10;98531.97;;;9.23;88.34
58018;BME280;43810;50.860;19.226;2023-03-21T01:15:46;98537.28;;;9.23;88.19
58018;BME280;43810;50.860;19.226;2023-03-21T01:18:14;98540.38;;;9.25;88.33
58018;BME280;43810;50.860;19.226;2023-03-21T01:20:42;98541.69;;;9.19;88.18
58018;BME280;43810;50.860;19.226;2023-03-21T01:23:09;98533.66;;;9.27;88.20
58018;BME280;43810;50.860;19.226;2023-03-21T01:25:36;98527.44;;;9.23;88.32
58018;BME280;43810;50.860;19.226;2023-03-21T01:28:02;98538.69;;;9.20;88.62
58018;BME280;43810;50.860;19.226;2023-03-21T01:30:34;98527.19;;;9.16;88.83
58018;BME280;43810;50.860;19.226;2023-03-21T01:33:00;98529.50;;;9.18;88.57
58018;BME280;43810;50.860;19.226;2023-03-21T01:35:26;98534.22;;;9.12;88.61
58018;BME280;43810;50.860;19.226;2023-03-21T01:37:51;98536.22;;;9.15;88.55
58018;BME280;43810;50.860;19.226;2023-03-21T01:40:21;98531.75;;;9.07;88.23
58018;BME280;43810;50.860;19.226;2023-03-21T01:42:47;98528.16;;;9.03;88.64
58018;BME280;43810;50.860;19.226;2023-03-21T01:48:18;98526.34;;;8.95;88.53
58018;BME280;43810;50.860;19.226;2023-03-21T01:50:44;98529.31;;;8.93;88.55
58018;BME280;43810;50.860;19.226;2023-03-21T01:53:11;98526.19;;;8.91;88.41
58018;BME280;43810;50.860;19.226;2023-03-21T01:55:39;98520.63;;;8.84;88.62
58018;BME280;43810;50.860;19.226;2023-03-21T01:58:07;98521.66;;;8.92;88.69
58018;BME280;43810;50.860;19.226;2023-03-21T02:00:36;98523.72;;;8.86;88.53
58018;BME280;43810;50.860;19.226;2023-03-21T02:03:06;98525.09;;;8.92;88.49
58018;BME280;43810;50.860;19.226;2023-03-21T02:08:01;98516.22;;;8.88;88.49
58018;BME280;43810;50.860;19.226;2023-03-21T02:10:28;98528.69;;;8.88;88.75
58018;BME280;43810;50.860;19.226;2023-03-21T02:12:57;98529.78;;;8.87;88.86
58018;BME280;43810;50.860;19.226;2023-03-21T02:15:36;98518.09;;;8.88;88.78
58018;BME280;43810;50.860;19.226;2023-03-21T02:34:49;98521.72;;;8.75;89.26
58018;BME280;43810;50.860;19.226;2023-03-21T02:37:21;98523.94;;;8.73;89.32
58018;BME280;43810;50.860;19.226;2023-03-21T02:40:11;98507.72;;;8.66;89.29
58018;BME280;43810;50.860;19.226;2023-03-21T02:45:19;98513.34;;;8.64;89.16
58018;BME280;43810;50.860;19.226;2023-03-21T02:48:00;98510.41;;;8.57;89.57
58018;BME280;43810;50.860;19.226;2023-03-21T02:50:35;98510.41;;;8.57;89.50
58018;BME280;43810;50.860;19.226;2023-03-21T02:53:05;98515.88;;;8.60;89.62
58018;BME280;43810;50.860;19.226;2023-03-21T02:55:34;98510.56;;;8.60;89.72
58018;BME280;43810;50.860;19.226;2023-03-21T02:58:01;98504.81;;;8.58;89.30
58018;BME280;43810;50.860;19.226;2023-03-21T03:00:30;98509.31;;;8.58;89.11
58018;BME280;43810;50.860;19.226;2023-03-21T03:02:58;98509.47;;;8.53;89.39
58018;BME280;43810;50.860;19.226;2023-03-21T03:05:27;98514.00;;;8.52;89.44
58018;BME280;43810;50.860;19.226;2023-03-21T03:13:52;98514.78;;;8.53;89.45
58018;BME280;43810;50.860;19.226;2023-03-21T03:16:38;98502.47;;;8.57;89.25
58018;BME280;43810;50.860;19.226;2023-03-21T03:19:20;98516.94;;;8.68;88.61
58018;BME280;43810;50.860;19.226;2023-03-21T03:21:53;98517.19;;;8.75;88.60
58018;BME280;43810;50.860;19.226;2023-03-21T03:24:32;98516.75;;;8.73;88.57
58018;BME280;43810;50.860;19.226;2023-03-21T03:27:09;98516.88;;;8.77;88.43
58018;BME280;43810;50.860;19.226;2023-03-21T03:29:39;98514.09;;;8.73;88.84
58018;BME280;43810;50.860;19.226;2023-03-21T03:32:08;98513.16;;;8.78;88.68
58018;BME280;43810;50.860;19.226;2023-03-21T03:34:39;98517.19;;;8.75;88.45
58018;BME280;43810;50.860;19.226;2023-03-21T03:37:10;98520.50;;;8.72;88.43
58018;BME280;43810;50.860;19.226;2023-03-21T03:39:44;98508.03;;;8.73;88.48
58018;BME280;43810;50.860;19.226;2023-03-21T03:42:16;98524.56;;;8.70;88.77
58018;BME280;43810;50.860;19.226;2023-03-21T03:44:44;98511.63;;;8.68;89.08
58018;BME280;43810;50.860;19.226;2023-03-21T03:47:16;98519.53;;;8.77;88.94
58018;BME280;43810;50.860;19.226;2023-03-21T03:49:56;98512.22;;;8.82;88.42
58018;BME280;43810;50.860;19.226;2023-03-21T03:52:29;98513.31;;;8.81;88.47
58018;BME280;43810;50.860;19.226;2023-03-21T03:54:57;98514.09;;;8.82;88.47
58018;BME280;43810;50.860;19.226;2023-03-21T03:57:24;98516.88;;;8.77;88.75
58018;BME280;43810;50.860;19.226;2023-03-21T03:59:51;98509.44;;;8.70;88.60
58018;BME280;43810;50.860;19.226;2023-03-21T04:02:17;98517.97;;;8.84;88.82
58018;BME280;43810;50.860;19.226;2023-03-21T04:04:45;98518.41;;;8.86;88.59
58018;BME280;43810;50.860;19.226;2023-03-21T04:07:12;98517.16;;;8.92;88.21
58018;BME280;43810;50.860;19.226;2023-03-21T04:09:38;98516.84;;;8.85;88.31
58018;BME280;43810;50.860;19.226;2023-03-21T04:12:03;98516.84;;;8.85;88.27
58018;BME280;43810;50.860;19.226;2023-03-21T04:14:29;98514.97;;;8.86;88.30
58018;BME280;43810;50.860;19.226;2023-03-21T04:16:55;98511.44;;;8.82;88.06
58018;BME280;43810;50.860;19.226;2023-03-21T04:19:21;98513.34;;;8.73;88.37
58018;BME280;43810;50.860;19.226;2023-03-21T04:21:47;98497.59;;;8.68;88.54
58018;BME280;43810;50.860;19.226;2023-03-21T04:24:13;98507.09;;;8.69;88.78
58018;BME280;43810;50.860;19.226;2023-03-21T04:26:40;98506.97;;;8.65;88.83
58018;BME280;43810;50.860;19.226;2023-03-21T04:29:06;98497.19;;;8.57;88.66
58018;BME280;43810;50.860;19.226;2023-03-21T04:31:33;98505.44;;;8.55;88.88
58018;BME280;43810;50.860;19.226;2023-03-21T04:34:03;98494.13;;;8.38;88.91
58018;BME280;43810;50.860;19.226;2023-03-21T04:36:34;98501.59;;;8.36;89.49
58018;BME280;43810;50.860;19.226;2023-03-21T04:39:05;98500.19;;;8.38;89.64
58018;BME280;43810;50.860;19.226;2023-03-21T04:41:40;98500.97;;;8.30;89.38
58018;BME280;43810;50.860;19.226;2023-03-21T04:44:08;98498.19;;;8.26;89.76
58018;BME280;43810;50.860;19.226;2023-03-21T04:46:34;98497.84;;;8.28;89.71
58018;BME280;43810;50.860;19.226;2023-03-21T04:49:01;98504.38;;;8.39;89.74
58018;BME280;43810;50.860;19.226;2023-03-21T04:51:27;98511.69;;;8.42;89.36
58018;BME280;43810;50.860;19.226;2023-03-21T04:53:54;98514.97;;;8.39;89.23
58018;BME280;43810;50.860;19.226;2023-03-21T04:56:25;98516.84;;;8.47;89.28
58018;BME280;43810;50.860;19.226;2023-03-21T04:59:06;98515.44;;;8.50;88.94
58018;BME280;43810;50.860;19.226;2023-03-21T05:01:33;98506.53;;;8.54;88.64
58018;BME280;43810;50.860;19.226;2023-03-21T05:04:00;98510.44;;;8.48;89.08
58018;BME280;43810;50.860;19.226;2023-03-21T05:06:26;98503.28;;;8.49;88.99
58018;BME280;43810;50.860;19.226;2023-03-21T05:08:54;98501.72;;;8.39;89.23
58018;BME280;43810;50.860;19.226;2023-03-21T05:11:27;98502.53;;;8.31;89.37
58018;BME280;43810;50.860;19.226;2023-03-21T05:13:53;98502.97;;;8.42;89.88
58018;BME280;43810;50.860;19.226;2023-03-21T05:16:19;98502.34;;;8.45;89.60
58018;BME280;43810;50.860;19.226;2023-03-21T05:18:45;98496.44;;;8.48;89.39
58018;BME280;43810;50.860;19.226;2023-03-21T05:21:15;98506.09;;;8.44;89.45
58018;BME280;43810;50.860;19.226;2023-03-21T05:23:42;98508.56;;;8.49;89.44
58018;BME280;43810;50.860;19.226;2023-03-21T05:26:09;98503.91;;;8.46;89.32
58018;BME280;43810;50.860;19.226;2023-03-21T05:28:35;98507.66;;;8.45;89.70
58018;BME280;43810;50.860;19.226;2023-03-21T05:31:02;98509.78;;;8.60;89.11
58018;BME280;43810;50.860;19.226;2023-03-21T05:33:29;98512.56;;;8.72;88.69
58018;BME280;43810;50.860;19.226;2023-03-21T05:35:55;98510.69;;;8.64;88.87
58018;BME280;43810;50.860;19.226;2023-03-21T05:38:21;98511.47;;;8.64;88.94
58018;BME280;43810;50.860;19.226;2023-03-21T05:40:47;98502.91;;;8.68;88.87
58018;BME280;43810;50.860;19.226;2023-03-21T05:43:14;98507.25;;;8.72;88.76
58018;BME280;43810;50.860;19.226;2023-03-21T05:45:39;98516.41;;;8.75;88.73
58018;BME280;43810;50.860;19.226;2023-03-21T05:48:05;98513.63;;;8.80;88.59
58018;BME280;43810;50.860;19.226;2023-03-21T05:50:31;98525.00;;;8.80;88.33
58018;BME280;43810;50.860;19.226;2023-03-21T05:52:57;98522.66;;;8.79;88.29
58018;BME280;43810;50.860;19.226;2023-03-21T05:55:23;98520.63;;;8.76;88.51
58018;BME280;43810;50.860;19.226;2023-03-21T05:57:49;98532.31;;;8.75;88.63
58018;BME280;43810;50.860;19.226;2023-03-21T06:00:15;98522.81;;;8.74;88.42
58018;BME280;43810;50.860;19.226;2023-03-21T06:02:41;98530.31;;;8.72;88.54
58018;BME280;43810;50.860;19.226;2023-03-21T06:05:07;98534.84;;;8.71;88.77
58018;BME280;43810;50.860;19.226;2023-03-21T06:07:33;98529.66;;;8.75;88.89
58018;BME280;43810;50.860;19.226;2023-03-21T06:10:00;98539.31;;;8.79;88.72
58018;BME280;43810;50.860;19.226;2023-03-21T06:12:26;98530.09;;;8.85;88.46
58018;BME280;43810;50.860;19.226;2023-03-21T06:14:51;98537.13;;;8.81;88.76
58018;BME280;43810;50.860;19.226;2023-03-21T06:17:17;98539.16;;;8.84;88.49
58018;BME280;43810;50.860;19.226;2023-03-21T06:19:43;98535.75;;;8.84;88.61
58018;BME280;43810;50.860;19.226;2023-03-21T06:22:09;98534.31;;;8.86;88.29
58018;BME280;43810;50.860;19.226;2023-03-21T06:24:35;98544.13;;;8.86;88.42
58018;BME280;43810;50.860;19.226;2023-03-21T06:27:01;98545.38;;;8.88;88.50
58018;BME280;43810;50.860;19.226;2023-03-21T06:29:27;98543.22;;;8.82;88.62
58018;BME280;43810;50.860;19.226;2023-03-21T06:31:52;98537.91;;;8.82;88.71
58018;BME280;43810;50.860;19.226;2023-03-21T06:34:18;98556.94;;;8.84;88.60
58018;BME280;43810;50.860;19.226;2023-03-21T06:36:44;98551.63;;;8.84;89.02
58018;BME280;43810;50.860;19.226;2023-03-21T06:39:11;98547.56;;;8.86;88.65
58018;BME280;43810;50.860;19.226;2023-03-21T06:41:38;98553.00;;;8.90;88.64
58018;BME280;43810;50.860;19.226;2023-03-21T06:44:03;98544.91;;;8.86;88.61
58018;BME280;43810;50.860;19.226;2023-03-21T06:46:30;98553.16;;;8.85;88.89
58018;BME280;43810;50.860;19.226;2023-03-21T06:48:55;98552.53;;;8.88;88.91
58018;BME280;43810;50.860;19.226;2023-03-21T06:51:21;98553.63;;;8.87;89.17
58018;BME280;43810;50.860;19.226;2023-03-21T06:53:47;98562.22;;;8.84;89.32
58018;BME280;43810;50.860;19.226;2023-03-21T06:56:14;98550.19;;;8.86;89.22
58018;BME280;43810;50.860;19.226;2023-03-21T06:58:40;98561.09;;;8.93;89.32
58018;BME280;43810;50.860;19.226;2023-03-21T07:01:07;98562.50;;;8.91;89.06
58018;BME280;43810;50.860;19.226;2023-03-21T07:03:33;98562.50;;;8.91;88.68
58018;BME280;43810;50.860;19.226;2023-03-21T07:06:10;98561.88;;;8.85;88.87
58018;BME280;43810;50.860;19.226;2023-03-21T07:08:37;98562.53;;;8.74;88.99
58018;BME280;43810;50.860;19.226;2023-03-21T07:11:03;98562.53;;;8.74;88.80
58018;BME280;43810;50.860;19.226;2023-03-21T07:13:30;98566.16;;;8.69;89.15
58018;BME280;43810;50.860;19.226;2023-03-21T07:15:57;98566.16;;;8.69;88.93
58018;BME280;43810;50.860;19.226;2023-03-21T07:18:22;98569.59;;;8.70;88.74
58018;BME280;43810;50.860;19.226;2023-03-21T07:20:50;98567.41;;;8.63;89.27
58018;BME280;43810;50.860;19.226;2023-03-21T07:23:20;98574.44;;;8.59;89.70
58018;BME280;43810;50.860;19.226;2023-03-21T07:25:47;98572.84;;;8.67;89.55
58018;BME280;43810;50.860;19.226;2023-03-21T07:28:14;98576.59;;;8.66;89.42
58018;BME280;43810;50.860;19.226;2023-03-21T07:30:40;98574.13;;;8.60;89.46
58018;BME280;43810;50.860;19.226;2023-03-21T07:33:06;98572.09;;;8.57;89.39
58018;BME280;43810;50.860;19.226;2023-03-21T07:35:33;98578.63;;;8.51;89.50
58018;BME280;43810;50.860;19.226;2023-03-21T07:37:58;98582.88;;;8.35;90.28
58018;BME280;43810;50.860;19.226;2023-03-21T07:40:25;98582.56;;;8.19;90.51
58018;BME280;43810;50.860;19.226;2023-03-21T07:42:51;98588.78;;;8.06;90.56
58018;BME280;43810;50.860;19.226;2023-03-21T07:45:17;98590.34;;;7.90;90.48
58018;BME280;43810;50.860;19.226;2023-03-21T07:47:47;98592.50;;;7.79;91.09
58018;BME280;43810;50.860;19.226;2023-03-21T07:50:13;98585.03;;;7.81;91.20
58018;BME280;43810;50.860;19.226;2023-03-21T07:52:39;98590.66;;;7.88;91.23
58018;BME280;43810;50.860;19.226;2023-03-21T07:55:05;98603.44;;;8.04;90.93
58018;BME280;43810;50.860;19.226;2023-03-21T07:57:31;98595.50;;;8.04;90.71
58018;BME280;43810;50.860;19.226;2023-03-21T07:59:57;98605.31;;;8.03;91.02
58018;BME280;43810;50.860;19.226;2023-03-21T08:02:23;98601.09;;;8.02;90.95
58018;BME280;43810;50.860;19.226;2023-03-21T08:04:49;98601.09;;;8.02;91.22
58018;BME280;43810;50.860;19.226;2023-03-21T08:07:15;98614.78;;;8.13;91.69
58018;BME280;43810;50.860;19.226;2023-03-21T08:09:42;98603.56;;;8.16;91.25
58018;BME280;43810;50.860;19.226;2023-03-21T08:12:09;98612.63;;;8.15;91.02
58018;BME280;43810;50.860;19.226;2023-03-21T08:14:35;98604.81;;;8.18;91.28
58018;BME280;43810;50.860;19.226;2023-03-21T08:17:02;98606.72;;;8.26;90.86
58018;BME280;43810;50.860;19.226;2023-03-21T08:19:28;98604.50;;;8.20;90.80
58018;BME280;43810;50.860;19.226;2023-03-21T08:21:55;98610.41;;;8.17;90.83
58018;BME280;43810;50.860;19.226;2023-03-21T08:24:25;98607.47;;;8.18;90.80
58018;BME280;43810;50.860;19.226;2023-03-21T08:26:51;98600.16;;;8.24;90.91
58018;BME280;43810;50.860;19.226;2023-03-21T08:29:17;98614.16;;;8.33;91.00
58018;BME280;43810;50.860;19.226;2023-03-21T08:31:42;98619.16;;;8.43;90.99
58018;BME280;43810;50.860;19.226;2023-03-21T08:34:08;98600.91;;;8.59;90.30
58018;BME280;43810;50.860;19.226;2023-03-21T08:36:35;98620.03;;;8.73;90.21
58018;BME280;43810;50.860;19.226;2023-03-21T08:39:03;98614.72;;;8.90;89.82
58018;BME280;43810;50.860;19.226;2023-03-21T08:41:32;98614.66;;;9.08;89.60
58018;BME280;43810;50.860;19.226;2023-03-21T08:43:59;98618.19;;;9.29;89.76
58018;BME280;43810;50.860;19.226;2023-03-21T08:46:26;98623.63;;;9.41;89.19
58018;BME280;43810;50.860;19.226;2023-03-21T08:48:52;98622.28;;;9.56;89.27
58018;BME280;43810;50.860;19.226;2023-03-21T08:51:19;98620.72;;;9.63;88.67
58018;BME280;43810;50.860;19.226;2023-03-21T08:53:45;98620.78;;;9.46;87.47
58018;BME280;43810;50.860;19.226;2023-03-21T08:56:11;98622.50;;;9.51;87.84
58018;BME280;43810;50.860;19.226;2023-03-21T08:58:37;98630.16;;;9.44;86.37
58018;BME280;43810;50.860;19.226;2023-03-21T09:01:04;98625.38;;;9.28;87.11
58018;BME280;43810;50.860;19.226;2023-03-21T09:03:32;98625.19;;;9.42;88.16
58018;BME280;43810;50.860;19.226;2023-03-21T09:05:58;98632.31;;;9.50;87.31
58018;BME280;43810;50.860;19.226;2023-03-21T09:08:24;98622.72;;;9.28;86.07
58018;BME280;43810;50.860;19.226;2023-03-21T09:10:53;98635.22;;;9.11;86.86
58018;BME280;43810;50.860;19.226;2023-03-21T09:13:20;98635.41;;;9.06;86.91
58018;BME280;43810;50.860;19.226;2023-03-21T09:15:46;98650.34;;;9.10;86.47
58018;BME280;43810;50.860;19.226;2023-03-21T09:18:13;98639.09;;;9.22;86.75
58018;BME280;43810;50.860;19.226;2023-03-21T09:20:44;98634.81;;;9.47;86.82
58018;BME280;43810;50.860;19.226;2023-03-21T09:23:12;98636.94;;;9.91;86.24
58018;BME280;43810;50.860;19.226;2023-03-21T09:25:44;98637.94;;;10.28;85.17
58018;BME280;43810;50.860;19.226;2023-03-21T09:28:10;98631.13;;;10.72;84.81
58018;BME280;43810;50.860;19.226;2023-03-21T09:30:37;98646.94;;;10.90;83.00
58018;BME280;43810;50.860;19.226;2023-03-21T09:33:04;98631.81;;;10.81;79.41
58018;BME280;43810;50.860;19.226;2023-03-21T09:35:37;98634.63;;;10.31;79.51
58018;BME280;43810;50.860;19.226;2023-03-21T09:38:03;98640.34;;;9.92;80.28
58018;BME280;43810;50.860;19.226;2023-03-21T09:43:49;98642.09;;;9.58;81.86
58018;BME280;43810;50.860;19.226;2023-03-21T09:46:33;98642.03;;;9.38;82.58
58018;BME280;43810;50.860;19.226;2023-03-21T09:49:08;98639.41;;;9.20;82.65
58018;BME280;43810;50.860;19.226;2023-03-21T09:51:43;98642.72;;;9.17;83.61
58018;BME280;43810;50.860;19.226;2023-03-21T09:54:18;98650.97;;;9.16;82.84
58018;BME280;43810;50.860;19.226;2023-03-21T09:56:46;98644.63;;;8.99;83.30
58018;BME280;43810;50.860;19.226;2023-03-21T09:59:21;98647.88;;;9.05;84.00
58018;BME280;43810;50.860;19.226;2023-03-21T10:01:48;98651.28;;;9.14;84.24
58018;BME280;43810;50.860;19.226;2023-03-21T10:04:15;98646.09;;;9.35;84.66
58018;BME280;43810;50.860;19.226;2023-03-21T10:06:44;98656.34;;;9.45;83.17
58018;BME280;43810;50.860;19.226;2023-03-21T10:09:16;98647.59;;;9.53;83.86
58018;BME280;43810;50.860;19.226;2023-03-21T10:11:59;98653.53;;;9.50;82.42
58018;BME280;43810;50.860;19.226;2023-03-21T10:14:51;98646.03;;;9.52;82.48
58018;BME280;43810;50.860;19.226;2023-03-21T10:20:15;98658.09;;;9.41;81.58
58018;BME280;43810;50.860;19.226;2023-03-21T10:22:45;98662.63;;;9.32;81.91
58018;BME280;43810;50.860;19.226;2023-03-21T10:25:15;98654.88;;;9.18;81.16
58018;BME280;43810;50.860;19.226;2023-03-21T10:27:42;98652.84;;;9.15;82.93
58018;BME280;43810;50.860;19.226;2023-03-21T10:30:50;98659.25;;;9.14;82.34
58018;BME280;43810;50.860;19.226;2023-03-21T10:33:15;98652.50;;;9.25;82.49
58018;BME280;43810;50.860;19.226;2023-03-21T10:35:50;98653.75;;;9.37;82.14
58018;BME280;43810;50.860;19.226;2023-03-21T10:38:19;98652.28;;;9.48;82.23
58018;BME280;43810;50.860;19.226;2023-03-21T10:40:46;98654.41;;;9.63;82.18
58018;BME280;43810;50.860;19.226;2023-03-21T10:43:35;98657.56;;;9.86;81.10
58018;BME280;43810;50.860;19.226;2023-03-21T10:46:08;98657.13;;;10.04;80.88
58018;BME280;43810;50.860;19.226;2023-03-21T10:48:37;98645.13;;;10.28;79.31
58018;BME280;43810;50.860;19.226;2023-03-21T10:51:06;98662.59;;;10.50;79.00
58018;BME280;43810;50.860;19.226;2023-03-21T10:53:40;98655.88;;;10.52;77.01
58018;BME280;43810;50.860;19.226;2023-03-21T10:56:12;98650.16;;;10.41;75.94
58018;BME280;43810;50.860;19.226;2023-03-21T10:58:42;98657.53;;;10.36;76.84
58018;BME280;43810;50.860;19.226;2023-03-21T11:01:11;98658.00;;;10.38;78.26
58018;BME280;43810;50.860;19.226;2023-03-21T11:03:44;98655.66;;;10.16;76.46
58018;BME280;43810;50.860;19.226;2023-03-21T11:08:48;98652.94;;;10.03;77.50
58018;BME280;43810;50.860;19.226;2023-03-21T11:11:24;98652.72;;;9.88;77.47
58018;BME280;43810;50.860;19.226;2023-03-21T11:13:57;98651.84;;;9.75;78.20
58018;BME280;43810;50.860;19.226;2023-03-21T11:16:29;98654.63;;;9.79;78.43
58018;BME280;43810;50.860;19.226;2023-03-21T11:19:01;98658.91;;;9.71;77.44
58018;BME280;43810;50.860;19.226;2023-03-21T11:21:34;98656.59;;;9.61;79.61
58018;BME280;43810;50.860;19.226;2023-03-21T11:24:01;98652.91;;;9.53;79.54
58018;BME280;43810;50.860;19.226;2023-03-21T11:26:35;98649.47;;;9.53;79.83
58018;BME280;43810;50.860;19.226;2023-03-21T11:29:36;98651.81;;;9.46;79.84
58018;BME280;43810;50.860;19.226;2023-03-21T11:32:22;98650.88;;;9.50;79.25
58018;BME280;43810;50.860;19.226;2023-03-21T11:34:53;98650.22;;;9.62;79.88
58018;BME280;43810;50.860;19.226;2023-03-21T11:40:26;98646.06;;;10.02;77.78
58018;BME280;43810;50.860;19.226;2023-03-21T11:42:56;98648.78;;;10.15;76.75
58018;BME280;43810;50.860;19.226;2023-03-21T11:45:32;98646.06;;;10.23;77.54
58018;BME280;43810;50.860;19.226;2023-03-21T11:48:04;98654.31;;;10.51;77.21
58018;BME280;43810;50.860;19.226;2023-03-21T11:50:34;98643.59;;;10.80;73.99
58018;BME280;43810;50.860;19.226;2023-03-21T11:58:09;98641.75;;;11.05;74.28
58018;BME280;43810;50.860;19.226;2023-03-21T12:00:49;98643.03;;;11.20;74.27
58018;BME280;43810;50.860;19.226;2023-03-21T12:06:04;98650.81;;;11.25;73.90
58018;BME280;43810;50.860;19.226;2023-03-21T12:16:03;98637.50;;;11.25;72.13
58018;BME280;43810;50.860;19.226;2023-03-21T12:21:19;98637.75;;;10.99;73.60
58018;BME280;43810;50.860;19.226;2023-03-21T12:26:29;98627.53;;;9.73;78.11
58018;BME280;43810;50.860;19.226;2023-03-21T12:29:04;98627.06;;;9.42;80.35
58018;BME280;43810;50.860;19.226;2023-03-21T12:31:36;98630.94;;;9.74;80.14
58018;BME280;43810;50.860;19.226;2023-03-21T12:39:03;98616.94;;;10.35;80.69
58018;BME280;43810;50.860;19.226;2023-03-21T12:41:42;98621.69;;;10.63;81.87
58018;BME280;43810;50.860;19.226;2023-03-21T12:44:11;98617.69;;;10.90;78.62
58018;BME280;43810;50.860;19.226;2023-03-21T12:51:41;98610.66;;;10.40;75.85
58018;BME280;43810;50.860;19.226;2023-03-21T12:54:22;98619.66;;;10.27;76.01
58018;BME280;43810;50.860;19.226;2023-03-21T12:56:51;98620.81;;;9.96;77.98
58018;BME280;43810;50.860;19.226;2023-03-21T12:59:30;98619.66;;;9.85;77.40
58018;BME280;43810;50.860;19.226;2023-03-21T13:02:09;98611.78;;;9.68;78.28
58018;BME280;43810;50.860;19.226;2023-03-21T13:04:41;98609.78;;;9.65;79.22
58018;BME280;43810;50.860;19.226;2023-03-21T13:07:12;98607.78;;;9.83;79.16
58018;BME280;43810;50.860;19.226;2023-03-21T13:09:40;98604.31;;;9.91;79.73
58018;BME280;43810;50.860;19.226;2023-03-21T13:12:13;98607.81;;;10.03;79.45
58018;BME280;43810;50.860;19.226;2023-03-21T13:15:06;98610.31;;;10.00;79.05
58018;BME280;43810;50.860;19.226;2023-03-21T13:17:31;98605.28;;;10.07;78.43
58018;BME280;43810;50.860;19.226;2023-03-21T13:20:12;98602.88;;;10.14;78.69
58018;BME280;43810;50.860;19.226;2023-03-21T13:22:40;98605.03;;;10.21;76.46
58018;BME280;43810;50.860;19.226;2023-03-21T13:27:33;98600.44;;;10.30;77.09
58018;BME280;43810;50.860;19.226;2023-03-21T13:35:01;98600.78;;;10.61;74.32
58018;BME280;43810;50.860;19.226;2023-03-21T13:37:30;98591.25;;;10.60;74.08
58018;BME280;43810;50.860;19.226;2023-03-21T13:40:01;98593.84;;;10.81;72.95
58018;BME280;43810;50.860;19.226;2023-03-21T13:42:29;98594.88;;;10.89;72.91
58018;BME280;43810;50.860;19.226;2023-03-21T13:44:58;98588.56;;;10.93;70.93
58018;BME280;43810;50.860;19.226;2023-03-21T13:47:30;98586.88;;;11.22;71.76
58018;BME280;43810;50.860;19.226;2023-03-21T13:50:13;98583.31;;;11.54;69.44
58018;BME280;43810;50.860;19.226;2023-03-21T13:52:39;98584.50;;;11.81;69.63
58018;BME280;43810;50.860;19.226;2023-03-21T13:55:12;98580.75;;;12.50;67.62
58018;BME280;43810;50.860;19.226;2023-03-21T13:57:41;98588.59;;;13.18;65.13
58018;BME280;43810;50.860;19.226;2023-03-21T14:05:28;98581.72;;;12.57;65.59
58018;BME280;43810;50.860;19.226;2023-03-21T14:07:55;98592.38;;;12.30;66.23
58018;BME280;43810;50.860;19.226;2023-03-21T14:10:29;98584.22;;;12.10;65.39
58018;BME280;43810;50.860;19.226;2023-03-21T14:12:57;98588.63;;;11.66;67.97
58018;BME280;43810;50.860;19.226;2023-03-21T14:15:45;98594.19;;;11.37;67.69
58018;BME280;43810;50.860;19.226;2023-03-21T14:18:14;98583.97;;;11.14;68.27
58018;BME280;43810;50.860;19.226;2023-03-21T14:20:40;98578.63;;;11.02;69.67
58018;BME280;43810;50.860;19.226;2023-03-21T14:23:12;98585.56;;;10.95;70.70
58018;BME280;43810;50.860;19.226;2023-03-21T14:25:39;98587.78;;;10.93;69.95
58018;BME280;43810;50.860;19.226;2023-03-21T14:28:07;98578.56;;;10.78;70.52
58018;BME280;43810;50.860;19.226;2023-03-21T14:30:38;98569.50;;;10.79;69.76
58018;BME280;43810;50.860;19.226;2023-03-21T14:33:18;98575.34;;;10.72;69.77
58018;BME280;43810;50.860;19.226;2023-03-21T14:35:47;98576.34;;;10.68;71.60